createdAt,value
2023-02-24T00:02:22.227Z,43.33
2023-02-24T00:07:24.236Z,37.55
2023-02-24T00:12:26.237Z,35.72
2023-02-24T00:17:30.722Z,39.22
2023-02-24T00:22:32.773Z,35.08
2023-02-24T00:27:35.447Z,41.20
2023-02-24T00:32:37.743Z,39.45
2023-02-24T00:37:39.848Z,38.15
2023-02-24T00:42:42.898Z,41.38
2023-02-24T00:47:44.982Z,44.47
2023-02-24T00:52:48.679Z,38.22
2023-02-24T00:57:51.175Z,36.90
2023-02-24T01:02:53.207Z,45.25
2023-02-24T01:07:55.269Z,47.33
2023-02-24T01:12:57.342Z,40.38
2023-02-24T01:17:59.408Z,31.58
2023-02-24T01:23:03.618Z,38.15
2023-02-24T01:28:05.834Z,40.70
2023-02-24T01:33:08.438Z,39.55
2023-02-24T01:43:14.021Z,45.38
2023-02-24T01:48:17.560Z,51.58
2023-02-24T01:53:20.226Z,45.47
2023-02-24T01:58:33.993Z,53.58
2023-02-24T02:03:42.168Z,43.05
2023-02-24T02:08:47.673Z,57.35
2023-02-24T02:13:52.021Z,21.95
2023-02-24T02:19:09.770Z,29.88
2023-02-24T02:24:38.047Z,45.03
2023-02-24T02:30:13.933Z,49.75
2023-02-24T02:35:46.797Z,52.25
2023-02-24T02:45:59.880Z,53.10
2023-02-24T02:51:11.590Z,53.53
2023-02-24T02:56:24.501Z,42.95
2023-02-24T03:01:34.171Z,51.45
2023-02-24T03:06:48.047Z,28.17
2023-02-24T03:11:56.236Z,52.45
2023-02-24T03:16:59.814Z,50.95
2023-02-24T03:22:36.445Z,39.30
2023-02-24T03:27:44.788Z,33.78
2023-02-24T03:32:56.300Z,53.00
2023-02-24T03:37:59.856Z,50.72
2023-02-24T03:43:08.533Z,29.88
2023-02-24T03:48:14.970Z,42.65
2023-02-24T03:53:50.104Z,41.28
2023-02-24T03:59:01.626Z,48.33
2023-02-24T04:04:33.598Z,39.22
2023-02-24T04:09:57.927Z,51.35
2023-02-24T04:15:26.508Z,29.70
2023-02-24T04:20:33.314Z,53.13
2023-02-24T04:25:36.140Z,63.92
2023-02-24T04:30:48.714Z,61.80
2023-02-24T04:35:51.599Z,53.17
2023-02-24T04:40:53.774Z,55.88
2023-02-24T04:45:56.428Z,31.55
2023-02-24T04:56:09.439Z,56.65
2023-02-24T05:01:11.890Z,56.45
2023-02-24T05:06:16.847Z,61.38
2023-02-24T05:11:19.686Z,64.50
2023-02-24T05:16:22.536Z,58.08
2023-02-24T05:26:42.064Z,56.58
2023-02-24T05:31:44.400Z,59.67
2023-02-24T05:36:47.322Z,83.07
2023-02-24T05:41:50.619Z,69.05
2023-02-24T05:47:00.879Z,47.40
2023-02-24T05:52:10.354Z,55.70
2023-02-24T05:57:21.474Z,44.78
2023-02-24T06:02:28.014Z,55.63
2023-02-24T06:07:34.746Z,56.35
2023-02-24T06:12:40.157Z,32.50
2023-02-24T06:17:42.127Z,36.38
2023-02-24T06:22:44.201Z,33.03
2023-02-24T06:27:46.295Z,36.20
2023-02-24T06:32:49.485Z,33.10
2023-02-24T06:37:51.587Z,35.80
2023-02-24T06:42:57.395Z,27.33
2023-02-24T06:47:59.365Z,29.35
2023-02-24T06:53:03.108Z,31.48
2023-02-24T06:58:05.097Z,35.28
2023-02-24T07:03:17.066Z,42.47
2023-02-24T07:08:23.226Z,38.55
2023-02-24T07:13:29.015Z,20.73
2023-02-24T07:18:31.307Z,30.52
2023-02-24T07:23:33.343Z,27.45
2023-02-24T07:28:35.386Z,30.52
2023-02-24T07:33:39.193Z,29.38
2023-02-24T07:38:43.111Z,33.97
2023-02-24T07:43:46.494Z,28.25
2023-02-24T07:48:48.534Z,32.10
2023-02-24T07:53:59.320Z,30.67
2023-02-24T07:59:08.363Z,35.92
2023-02-24T08:04:13.007Z,30.50
2023-02-24T08:09:42.649Z,33.97
2023-02-24T08:14:51.242Z,10.82
2023-02-24T08:20:21.351Z,28.98
2023-02-24T08:25:36.065Z,21.27
2023-02-24T08:30:46.776Z,27.77
2023-02-24T08:36:01.562Z,26.02
2023-02-24T08:41:05.254Z,21.63
2023-02-24T08:46:21.608Z,27.80
2023-02-24T08:51:29.161Z,19.55
2023-02-24T08:56:35.235Z,15.30
2023-02-24T09:01:40.554Z,16.85
2023-02-24T09:07:10.843Z,17.02
2023-02-24T09:12:29.144Z,22.60
2023-02-24T09:17:41.512Z,21.48
2023-02-24T09:22:57.563Z,25.42
2023-02-24T09:28:17.656Z,15.40
2023-02-24T09:33:37.483Z,15.48
2023-02-24T09:39:00.100Z,8.80
2023-02-24T09:44:08.023Z,22.73
2023-02-24T09:49:17.817Z,21.60
2023-02-24T09:54:25.029Z,18.15
2023-02-24T09:59:36.641Z,18.25
2023-02-24T10:05:07.647Z,13.55
2023-02-24T10:10:39.588Z,19.60
2023-02-24T10:15:58.801Z,10.68
2023-02-24T10:21:30.985Z,13.98
2023-02-24T10:27:00.659Z,12.25
2023-02-24T10:32:24.260Z,23.65
2023-02-24T10:37:29.701Z,18.80
2023-02-24T10:42:34.664Z,16.73
2023-02-24T10:47:36.675Z,9.27
2023-02-24T10:53:06.755Z,17.52
2023-02-24T10:58:22.929Z,12.98
2023-02-24T11:03:41.910Z,14.85
2023-02-24T11:08:54.959Z,18.77
2023-02-24T11:14:21.146Z,12.18
2023-02-24T11:19:23.258Z,15.88
2023-02-24T11:24:26.042Z,9.80
2023-02-24T11:30:02.032Z,10.07
2023-02-24T11:35:12.638Z,11.77
2023-02-24T11:40:24.100Z,6.07
2023-02-24T11:45:29.794Z,10.27
2023-02-24T11:51:04.557Z,5.93
2023-02-24T11:56:28.230Z,6.80
2023-02-24T12:01:37.910Z,6.28
2023-02-24T12:06:48.775Z,5.95
2023-02-24T12:12:18.128Z,7.72
2023-02-24T12:17:37.164Z,8.05
2023-02-24T12:22:57.708Z,4.30
2023-02-24T12:33:31.991Z,9.50
2023-02-24T12:39:07.189Z,6.05
2023-02-24T12:44:27.145Z,5.65
2023-02-24T12:49:54.623Z,8.05
2023-02-24T12:55:09.392Z,7.18
2023-02-24T13:00:22.015Z,12.40
2023-02-24T13:05:44.283Z,8.73
2023-02-24T13:11:16.308Z,8.88
2023-02-24T13:16:30.105Z,10.73
2023-02-24T13:21:33.987Z,6.90
2023-02-24T13:26:36.088Z,20.40
2023-02-24T13:31:50.735Z,10.23
2023-02-24T13:36:53.167Z,10.02
2023-02-24T13:42:20.621Z,12.02
2023-02-24T13:47:43.937Z,5.70
2023-02-24T13:53:09.316Z,10.93
2023-02-24T13:58:35.803Z,5.88
2023-02-24T14:03:41.610Z,6.07
2023-02-24T14:08:55.911Z,6.03
2023-02-24T14:13:59.474Z,10.48
2023-02-24T14:19:03.420Z,10.75
2023-02-24T14:24:13.693Z,13.40
2023-02-24T14:29:23.252Z,10.52
2023-02-24T14:34:28.337Z,10.90
2023-02-24T14:39:32.928Z,7.35
2023-02-24T14:44:41.983Z,11.10
2023-02-24T14:50:03.477Z,11.93
2023-02-24T14:55:19.080Z,11.95
2023-02-24T15:00:25.862Z,19.13
2023-02-24T15:05:28.475Z,9.20
2023-02-24T15:10:32.302Z,11.32
2023-02-24T15:15:39.596Z,10.98
2023-02-24T15:20:42.023Z,22.15
2023-02-24T15:25:46.924Z,11.32
2023-02-24T15:31:16.895Z,11.43
2023-02-24T15:36:22.867Z,18.02
2023-02-24T15:41:26.049Z,9.27
2023-02-24T15:46:34.776Z,10.48
2023-02-24T15:51:46.675Z,8.57
2023-02-24T15:56:49.431Z,13.13
2023-02-24T16:01:54.908Z,11.80
2023-02-24T16:06:58.614Z,23.38
2023-02-24T16:12:02.946Z,10.60
2023-02-24T16:17:09.663Z,16.65
2023-02-24T16:22:12.157Z,13.00
2023-02-24T16:27:17.457Z,11.60
2023-02-24T16:32:22.518Z,7.40
2023-02-24T16:37:29.596Z,9.20
2023-02-24T16:42:32.177Z,14.00
2023-02-24T16:47:35.688Z,12.07
2023-02-24T16:52:38.078Z,7.65
2023-02-24T16:57:41.205Z,13.27
2023-02-24T17:02:45.679Z,14.55
2023-02-24T17:07:50.556Z,16.95
2023-02-24T17:12:53.282Z,11.05
2023-02-24T17:22:58.610Z,16.60
2023-02-24T17:33:03.541Z,13.15
2023-02-24T17:38:15.826Z,14.73
2023-02-24T17:43:18.474Z,14.43
2023-02-24T17:48:22.840Z,20.85
2023-02-24T17:53:28.422Z,11.85
2023-02-24T17:58:31.808Z,19.65
2023-02-24T18:03:36.605Z,14.48
2023-02-24T18:08:40.831Z,21.02
2023-02-24T18:13:44.330Z,4.63
2023-02-24T18:18:47.663Z,11.70
2023-02-24T18:23:50.603Z,7.10
2023-02-24T18:33:58.485Z,8.25
2023-02-24T18:39:09.138Z,14.45
2023-02-24T18:44:12.789Z,10.40
2023-02-24T18:49:15.748Z,9.60
2023-02-24T18:54:23.849Z,17.27
2023-02-24T18:59:26.974Z,18.98
2023-02-24T19:04:29.745Z,7.95
2023-02-24T19:09:34.294Z,8.95
2023-02-24T19:14:38.036Z,7.30
2023-02-24T19:19:41.106Z,6.35
2023-02-24T19:24:44.354Z,11.77
2023-02-24T19:29:47.474Z,12.23
2023-02-24T19:34:51.628Z,11.10
2023-02-24T19:39:55.892Z,9.32
2023-02-24T19:45:00.592Z,2.10
2023-02-24T19:50:03.599Z,9.20
2023-02-24T19:55:08.990Z,10.20
2023-02-24T20:00:13.172Z,18.00
2023-02-24T20:05:18.967Z,12.73
2023-02-24T20:10:22.128Z,15.10
2023-02-24T20:15:26.092Z,14.90
2023-02-24T20:20:29.381Z,17.63
2023-02-24T20:25:32.164Z,10.45
2023-02-24T20:30:37.341Z,14.05
2023-02-24T20:35:42.041Z,5.35
2023-02-24T20:40:46.169Z,16.55
2023-02-24T20:45:48.662Z,13.80
2023-02-24T20:50:51.917Z,9.77
2023-02-24T20:56:03.965Z,11.40
2023-02-24T21:01:08.896Z,11.75
2023-02-24T21:06:13.828Z,10.40
2023-02-24T21:11:16.892Z,9.50
2023-02-24T21:16:21.354Z,13.77
2023-02-24T21:21:24.013Z,13.10
2023-02-24T21:26:27.258Z,8.18
2023-02-24T21:31:31.224Z,5.40
2023-02-24T21:36:34.147Z,18.65
2023-02-24T21:46:38.729Z,13.48
2023-02-24T21:51:42.386Z,5.30
2023-02-24T21:56:44.798Z,12.73
2023-02-24T22:01:47.582Z,4.88
2023-02-24T22:11:52.091Z,15.65
2023-02-24T22:16:54.122Z,19.15
2023-02-24T22:21:59.318Z,8.82
2023-02-24T22:27:01.439Z,11.52
2023-02-24T22:32:05.356Z,12.85
2023-02-24T22:37:07.939Z,8.32
2023-02-24T22:42:10.031Z,10.25
2023-02-24T22:47:12.187Z,5.28
2023-02-24T22:52:17.033Z,4.70
2023-02-24T22:57:19.113Z,14.38
2023-02-24T23:02:21.156Z,10.27
2023-02-24T23:07:23.220Z,5.55
2023-02-24T23:12:27.269Z,5.60
2023-02-24T23:17:29.345Z,11.80
2023-02-24T23:22:31.443Z,14.27
2023-02-24T23:27:33.496Z,7.55
2023-02-24T23:32:36.991Z,16.23
2023-02-24T23:37:40.254Z,12.38
2023-02-24T23:42:43.010Z,11.85
2023-02-24T23:47:45.170Z,12.40
2023-02-24T23:52:47.476Z,14.60
2023-02-24T23:57:49.529Z,9.70
